sensor_id;sensor_type;location;lat;lon;timestamp;temperature;humidity
58447;DHT22;44240;51.840;7.258;2023-01-19T00:01:19;3.30;99.90
58447;DHT22;44240;51.840;7.258;2023-01-19T00:03:44;3.30;99.90
58447;DHT22;44240;51.840;7.258;2023-01-19T00:06:10;3.30;99.90
58447;DHT22;44240;51.840;7.258;2023-01-19T00:08:36;3.30;99.90
58447;DHT22;44240;51.840;7.258;2023-01-19T00:11:02;3.40;99.90
58447;DHT22;44240;51.840;7.258;2023-01-19T00:13:28;3.30;99.90
58447;DHT22;44240;51.840;7.258;2023-01-19T00:15:53;3.30;99.90
58447;DHT22;44240;51.840;7.258;2023-01-19T00:18:19;3.30;99.90
58447;DHT22;44240;51.840;7.258;2023-01-19T00:20:45;3.30;99.90
58447;DHT22;44240;51.840;7.258;2023-01-19T00:23:11;3.40;99.90
58447;DHT22;44240;51.840;7.258;2023-01-19T00:25:37;3.40;99.90
58447;DHT22;44240;51.840;7.258;2023-01-19T00:28:10;3.40;99.90
58447;DHT22;44240;51.840;7.258;2023-01-19T00:30:37;3.40;99.90
58447;DHT22;44240;51.840;7.258;2023-01-19T00:33:02;3.40;99.90
58447;DHT22;44240;51.840;7.258;2023-01-19T00:35:28;3.40;99.90
58447;DHT22;44240;51.840;7.258;2023-01-19T00:37:55;3.40;99.90
58447;DHT22;44240;51.840;7.258;2023-01-19T00:40:20;3.40;99.90
58447;DHT22;44240;51.840;7.258;2023-01-19T00:42:46;3.40;99.90
58447;DHT22;44240;51.840;7.258;2023-01-19T00:45:17;3.40;99.90
58447;DHT22;44240;51.840;7.258;2023-01-19T00:47:43;3.40;99.90
58447;DHT22;44240;51.840;7.258;2023-01-19T00:50:14;3.40;99.90
58447;DHT22;44240;51.840;7.258;2023-01-19T00:52:42;3.40;99.90
58447;DHT22;44240;51.840;7.258;2023-01-19T00:55:09;3.40;99.90
58447;DHT22;44240;51.840;7.258;2023-01-19T00:57:35;3.40;99.90
58447;DHT22;44240;51.840;7.258;2023-01-19T01:00:02;3.40;99.90
58447;DHT22;44240;51.840;7.258;2023-01-19T01:02:30;3.50;99.90
58447;DHT22;44240;51.840;7.258;2023-01-19T01:04:56;3.50;99.90
58447;DHT22;44240;51.840;7.258;2023-01-19T01:07:22;3.50;99.90
58447;DHT22;44240;51.840;7.258;2023-01-19T01:09:48;3.50;99.90
58447;DHT22;44240;51.840;7.258;2023-01-19T01:12:14;3.50;99.90
58447;DHT22;44240;51.840;7.258;2023-01-19T01:14:39;3.50;99.90
58447;DHT22;44240;51.840;7.258;2023-01-19T01:17:05;3.50;99.90
58447;DHT22;44240;51.840;7.258;2023-01-19T01:19:30;3.50;99.90
58447;DHT22;44240;51.840;7.258;2023-01-19T01:21:56;3.50;99.90
58447;DHT22;44240;51.840;7.258;2023-01-19T01:24:22;3.50;99.90
58447;DHT22;44240;51.840;7.258;2023-01-19T01:26:47;3.50;99.90
58447;DHT22;44240;51.840;7.258;2023-01-19T01:29:13;3.50;99.90
58447;DHT22;44240;51.840;7.258;2023-01-19T01:31:38;3.50;99.90
58447;DHT22;44240;51.840;7.258;2023-01-19T01:34:04;3.50;99.90
58447;DHT22;44240;51.840;7.258;2023-01-19T01:36:29;3.50;99.90
58447;DHT22;44240;51.840;7.258;2023-01-19T01:38:58;3.50;99.90
58447;DHT22;44240;51.840;7.258;2023-01-19T01:41:23;3.50;99.90
58447;DHT22;44240;51.840;7.258;2023-01-19T01:43:53;3.50;99.90
58447;DHT22;44240;51.840;7.258;2023-01-19T01:46:23;3.50;99.90
58447;DHT22;44240;51.840;7.258;2023-01-19T01:48:54;3.60;99.90
58447;DHT22;44240;51.840;7.258;2023-01-19T01:51:49;3.50;99.90
58447;DHT22;44240;51.840;7.258;2023-01-19T01:54:23;3.60;99.90
58447;DHT22;44240;51.840;7.258;2023-01-19T01:56:52;3.60;99.90
58447;DHT22;44240;51.840;7.258;2023-01-19T01:59:25;3.60;99.90
58447;DHT22;44240;51.840;7.258;2023-01-19T02:01:55;3.60;99.90
58447;DHT22;44240;51.840;7.258;2023-01-19T02:04:45;3.60;99.90
58447;DHT22;44240;51.840;7.258;2023-01-19T02:07:14;3.60;99.90
58447;DHT22;44240;51.840;7.258;2023-01-19T02:10:00;3.60;99.90
58447;DHT22;44240;51.840;7.258;2023-01-19T02:12:44;3.60;99.90
58447;DHT22;44240;51.840;7.258;2023-01-19T02:15:29;3.60;99.90
58447;DHT22;44240;51.840;7.258;2023-01-19T02:17:55;3.60;99.90
58447;DHT22;44240;51.840;7.258;2023-01-19T02:20:26;3.60;99.90
58447;DHT22;44240;51.840;7.258;2023-01-19T02:22:54;3.60;99.90
58447;DHT22;44240;51.840;7.258;2023-01-19T02:25:21;3.60;99.90
58447;DHT22;44240;51.840;7.258;2023-01-19T02:27:48;3.60;99.90
58447;DHT22;44240;51.840;7.258;2023-01-19T02:30:15;3.60;99.90
58447;DHT22;44240;51.840;7.258;2023-01-19T02:32:41;3.60;99.90
58447;DHT22;44240;51.840;7.258;2023-01-19T02:35:07;3.70;99.90
58447;DHT22;44240;51.840;7.258;2023-01-19T02:37:35;3.70;99.90
58447;DHT22;44240;51.840;7.258;2023-01-19T02:40:10;3.70;99.90
58447;DHT22;44240;51.840;7.258;2023-01-19T02:42:46;3.70;99.90
58447;DHT22;44240;51.840;7.258;2023-01-19T02:45:14;3.70;99.90
58447;DHT22;44240;51.840;7.258;2023-01-19T02:47:47;3.70;99.90
58447;DHT22;44240;51.840;7.258;2023-01-19T02:53:11;3.70;99.90
58447;DHT22;44240;51.840;7.258;2023-01-19T02:55:41;3.70;99.90
58447;DHT22;44240;51.840;7.258;2023-01-19T02:58:23;3.70;99.90
58447;DHT22;44240;51.840;7.258;2023-01-19T03:01:03;3.70;99.90
58447;DHT22;44240;51.840;7.258;2023-01-19T03:03:55;3.70;99.90
58447;DHT22;44240;51.840;7.258;2023-01-19T03:09:11;3.70;99.90
58447;DHT22;44240;51.840;7.258;2023-01-19T03:11:41;3.70;99.90
58447;DHT22;44240;51.840;7.258;2023-01-19T03:14:17;3.70;99.90
58447;DHT22;44240;51.840;7.258;2023-01-19T03:16:46;3.70;99.90
58447;DHT22;44240;51.840;7.258;2023-01-19T03:19:20;3.70;99.90
58447;DHT22;44240;51.840;7.258;2023-01-19T03:21:51;3.70;99.90
58447;DHT22;44240;51.840;7.258;2023-01-19T03:24:20;3.70;99.90
58447;DHT22;44240;51.840;7.258;2023-01-19T03:26:52;3.70;99.90
58447;DHT22;44240;51.840;7.258;2023-01-19T03:29:21;3.70;99.90
58447;DHT22;44240;51.840;7.258;2023-01-19T03:31:50;3.70;99.90
58447;DHT22;44240;51.840;7.258;2023-01-19T03:34:17;3.70;99.90
58447;DHT22;44240;51.840;7.258;2023-01-19T03:36:50;3.60;99.90
58447;DHT22;44240;51.840;7.258;2023-01-19T03:39:24;3.60;99.90
58447;DHT22;44240;51.840;7.258;2023-01-19T03:42:12;3.70;99.90
58447;DHT22;44240;51.840;7.258;2023-01-19T03:44:39;3.70;99.90
58447;DHT22;44240;51.840;7.258;2023-01-19T03:47:07;3.60;99.90
58447;DHT22;44240;51.840;7.258;2023-01-19T03:49:35;3.70;99.90
58447;DHT22;44240;51.840;7.258;2023-01-19T03:52:02;3.60;99.90
58447;DHT22;44240;51.840;7.258;2023-01-19T03:54:28;3.70;99.90
58447;DHT22;44240;51.840;7.258;2023-01-19T03:56:53;3.70;99.90
58447;DHT22;44240;51.840;7.258;2023-01-19T03:59:19;3.60;99.90
58447;DHT22;44240;51.840;7.258;2023-01-19T04:01:46;3.60;99.90
58447;DHT22;44240;51.840;7.258;2023-01-19T04:04:12;3.60;99.90
58447;DHT22;44240;51.840;7.258;2023-01-19T04:06:38;3.60;99.90
58447;DHT22;44240;51.840;7.258;2023-01-19T04:09:04;3.60;99.90
58447;DHT22;44240;51.840;7.258;2023-01-19T04:11:29;3.60;99.90
58447;DHT22;44240;51.840;7.258;2023-01-19T04:13:55;3.60;99.90
58447;DHT22;44240;51.840;7.258;2023-01-19T04:16:21;3.60;99.90
58447;DHT22;44240;51.840;7.258;2023-01-19T04:18:47;3.60;99.90
58447;DHT22;44240;51.840;7.258;2023-01-19T04:21:13;3.60;99.90
58447;DHT22;44240;51.840;7.258;2023-01-19T04:23:38;3.60;99.90
58447;DHT22;44240;51.840;7.258;2023-01-19T04:26:05;3.50;99.90
58447;DHT22;44240;51.840;7.258;2023-01-19T04:28:32;3.50;99.90
58447;DHT22;44240;51.840;7.258;2023-01-19T04:30:59;3.40;99.90
58447;DHT22;44240;51.840;7.258;2023-01-19T04:33:26;3.40;99.90
58447;DHT22;44240;51.840;7.258;2023-01-19T04:35:52;3.40;99.90
58447;DHT22;44240;51.840;7.258;2023-01-19T04:38:18;3.30;99.90
58447;DHT22;44240;51.840;7.258;2023-01-19T04:40:44;3.20;99.90
58447;DHT22;44240;51.840;7.258;2023-01-19T04:43:10;3.20;99.90
58447;DHT22;44240;51.840;7.258;2023-01-19T04:45:35;3.20;99.90
58447;DHT22;44240;51.840;7.258;2023-01-19T04:48:01;3.20;99.90
58447;DHT22;44240;51.840;7.258;2023-01-19T04:50:28;3.10;99.90
58447;DHT22;44240;51.840;7.258;2023-01-19T04:52:54;3.10;99.90
58447;DHT22;44240;51.840;7.258;2023-01-19T04:55:20;3.00;99.90
58447;DHT22;44240;51.840;7.258;2023-01-19T04:57:46;3.00;99.90
58447;DHT22;44240;51.840;7.258;2023-01-19T05:00:12;2.90;99.90
58447;DHT22;44240;51.840;7.258;2023-01-19T05:02:37;2.90;99.90
58447;DHT22;44240;51.840;7.258;2023-01-19T05:05:04;3.00;99.90
58447;DHT22;44240;51.840;7.258;2023-01-19T05:07:29;3.00;99.90
58447;DHT22;44240;51.840;7.258;2023-01-19T05:09:55;3.00;99.90
58447;DHT22;44240;51.840;7.258;2023-01-19T05:12:21;2.90;99.90
58447;DHT22;44240;51.840;7.258;2023-01-19T05:14:46;2.90;99.90
58447;DHT22;44240;51.840;7.258;2023-01-19T05:17:12;3.00;99.90
58447;DHT22;44240;51.840;7.258;2023-01-19T05:19:37;2.90;99.90
58447;DHT22;44240;51.840;7.258;2023-01-19T05:22:04;2.90;99.90
58447;DHT22;44240;51.840;7.258;2023-01-19T05:24:30;2.90;99.90
58447;DHT22;44240;51.840;7.258;2023-01-19T05:26:55;2.90;99.90
58447;DHT22;44240;51.840;7.258;2023-01-19T05:29:21;2.90;99.90
58447;DHT22;44240;51.840;7.258;2023-01-19T05:31:46;2.90;99.90
58447;DHT22;44240;51.840;7.258;2023-01-19T05:34:12;2.90;99.90
58447;DHT22;44240;51.840;7.258;2023-01-19T05:36:38;2.90;99.90
58447;DHT22;44240;51.840;7.258;2023-01-19T05:39:04;2.80;99.90
58447;DHT22;44240;51.840;7.258;2023-01-19T05:41:30;2.80;99.90
58447;DHT22;44240;51.840;7.258;2023-01-19T05:43:55;2.90;99.90
58447;DHT22;44240;51.840;7.258;2023-01-19T05:46:21;2.90;99.90
58447;DHT22;44240;51.840;7.258;2023-01-19T05:48:47;2.90;99.90
58447;DHT22;44240;51.840;7.258;2023-01-19T05:51:13;2.80;99.90
58447;DHT22;44240;51.840;7.258;2023-01-19T05:53:39;2.80;99.90
58447;DHT22;44240;51.840;7.258;2023-01-19T05:56:06;2.80;99.90
58447;DHT22;44240;51.840;7.258;2023-01-19T05:58:35;2.80;99.90
58447;DHT22;44240;51.840;7.258;2023-01-19T06:01:05;2.90;99.90
58447;DHT22;44240;51.840;7.258;2023-01-19T06:03:31;2.90;99.90
58447;DHT22;44240;51.840;7.258;2023-01-19T06:05:57;2.90;99.90
58447;DHT22;44240;51.840;7.258;2023-01-19T06:08:23;2.80;99.90
58447;DHT22;44240;51.840;7.258;2023-01-19T06:10:49;2.90;99.90
58447;DHT22;44240;51.840;7.258;2023-01-19T06:13:15;2.90;99.90
58447;DHT22;44240;51.840;7.258;2023-01-19T06:15:40;2.90;99.90
58447;DHT22;44240;51.840;7.258;2023-01-19T06:18:08;2.90;99.90
58447;DHT22;44240;51.840;7.258;2023-01-19T06:20:34;2.90;99.90
58447;DHT22;44240;51.840;7.258;2023-01-19T06:23:00;2.90;99.90
58447;DHT22;44240;51.840;7.258;2023-01-19T06:25:26;2.90;99.90
58447;DHT22;44240;51.840;7.258;2023-01-19T06:27:51;2.90;99.90
58447;DHT22;44240;51.840;7.258;2023-01-19T06:30:17;2.90;99.90
58447;DHT22;44240;51.840;7.258;2023-01-19T06:32:43;2.90;99.90
58447;DHT22;44240;51.840;7.258;2023-01-19T06:35:08;2.90;99.90
58447;DHT22;44240;51.840;7.258;2023-01-19T06:37:34;2.90;99.90
58447;DHT22;44240;51.840;7.258;2023-01-19T06:40:00;2.90;99.90
58447;DHT22;44240;51.840;7.258;2023-01-19T06:42:26;2.90;99.90
58447;DHT22;44240;51.840;7.258;2023-01-19T06:44:51;2.90;99.90
58447;DHT22;44240;51.840;7.258;2023-01-19T06:47:17;2.90;99.90
58447;DHT22;44240;51.840;7.258;2023-01-19T06:49:43;2.90;99.90
58447;DHT22;44240;51.840;7.258;2023-01-19T06:52:09;2.90;99.90
58447;DHT22;44240;51.840;7.258;2023-01-19T06:54:35;2.90;99.90
58447;DHT22;44240;51.840;7.258;2023-01-19T06:57:02;2.90;99.90
58447;DHT22;44240;51.840;7.258;2023-01-19T06:59:27;2.90;99.90
58447;DHT22;44240;51.840;7.258;2023-01-19T07:01:53;2.90;99.90
58447;DHT22;44240;51.840;7.258;2023-01-19T07:04:20;2.80;99.90
58447;DHT22;44240;51.840;7.258;2023-01-19T07:06:45;2.80;99.90
58447;DHT22;44240;51.840;7.258;2023-01-19T07:09:11;2.80;99.90
58447;DHT22;44240;51.840;7.258;2023-01-19T07:11:37;2.80;99.90
58447;DHT22;44240;51.840;7.258;2023-01-19T07:14:03;2.80;99.90
58447;DHT22;44240;51.840;7.258;2023-01-19T07:16:29;2.90;99.90
58447;DHT22;44240;51.840;7.258;2023-01-19T07:18:54;2.90;99.90
58447;DHT22;44240;51.840;7.258;2023-01-19T07:21:20;2.90;99.90
58447;DHT22;44240;51.840;7.258;2023-01-19T07:23:50;2.80;99.90
58447;DHT22;44240;51.840;7.258;2023-01-19T07:26:16;2.80;99.90
58447;DHT22;44240;51.840;7.258;2023-01-19T07:28:46;2.80;99.90
58447;DHT22;44240;51.840;7.258;2023-01-19T07:31:12;2.80;99.90
58447;DHT22;44240;51.840;7.258;2023-01-19T07:33:37;2.80;99.90
58447;DHT22;44240;51.840;7.258;2023-01-19T07:36:03;2.80;99.90
58447;DHT22;44240;51.840;7.258;2023-01-19T07:38:29;2.80;99.90
58447;DHT22;44240;51.840;7.258;2023-01-19T07:41:02;2.80;99.90
58447;DHT22;44240;51.840;7.258;2023-01-19T07:43:27;2.80;99.90
58447;DHT22;44240;51.840;7.258;2023-01-19T07:46:01;2.80;99.90
58447;DHT22;44240;51.840;7.258;2023-01-19T07:48:27;2.80;99.90
58447;DHT22;44240;51.840;7.258;2023-01-19T07:51:01;2.80;99.90
58447;DHT22;44240;51.840;7.258;2023-01-19T07:53:29;2.80;99.90
58447;DHT22;44240;51.840;7.258;2023-01-19T07:55:56;2.80;99.90
58447;DHT22;44240;51.840;7.258;2023-01-19T07:58:22;2.80;99.90
58447;DHT22;44240;51.840;7.258;2023-01-19T08:00:48;2.90;99.90
58447;DHT22;44240;51.840;7.258;2023-01-19T08:03:14;2.90;99.90
58447;DHT22;44240;51.840;7.258;2023-01-19T08:05:40;2.90;99.90
58447;DHT22;44240;51.840;7.258;2023-01-19T08:08:06;2.90;99.90
58447;DHT22;44240;51.840;7.258;2023-01-19T08:10:32;3.00;99.90
58447;DHT22;44240;51.840;7.258;2023-01-19T08:12:58;3.00;99.90
58447;DHT22;44240;51.840;7.258;2023-01-19T08:15:24;3.00;99.90
58447;DHT22;44240;51.840;7.258;2023-01-19T08:18:03;3.00;99.90
58447;DHT22;44240;51.840;7.258;2023-01-19T08:20:34;3.00;99.90
58447;DHT22;44240;51.840;7.258;2023-01-19T08:23:00;3.00;99.90
58447;DHT22;44240;51.840;7.258;2023-01-19T08:25:38;3.00;99.90
58447;DHT22;44240;51.840;7.258;2023-01-19T08:28:05;3.00;99.90
58447;DHT22;44240;51.840;7.258;2023-01-19T08:30:31;3.00;99.90
58447;DHT22;44240;51.840;7.258;2023-01-19T08:32:57;3.00;99.90
58447;DHT22;44240;51.840;7.258;2023-01-19T08:35:33;3.00;99.90
58447;DHT22;44240;51.840;7.258;2023-01-19T08:37:59;3.00;99.90
58447;DHT22;44240;51.840;7.258;2023-01-19T08:40:28;3.10;99.90
58447;DHT22;44240;51.840;7.258;2023-01-19T08:42:58;3.00;99.90
58447;DHT22;44240;51.840;7.258;2023-01-19T08:45:25;3.00;99.90
58447;DHT22;44240;51.840;7.258;2023-01-19T08:47:54;3.00;99.90
58447;DHT22;44240;51.840;7.258;2023-01-19T08:50:20;3.00;99.90
58447;DHT22;44240;51.840;7.258;2023-01-19T08:52:46;3.00;99.90
58447;DHT22;44240;51.840;7.258;2023-01-19T08:55:12;3.00;99.90
58447;DHT22;44240;51.840;7.258;2023-01-19T08:57:37;3.00;99.90
58447;DHT22;44240;51.840;7.258;2023-01-19T09:00:03;3.10;99.90
58447;DHT22;44240;51.840;7.258;2023-01-19T09:02:32;3.00;99.90
58447;DHT22;44240;51.840;7.258;2023-01-19T09:04:57;3.10;99.90
58447;DHT22;44240;51.840;7.258;2023-01-19T09:07:23;3.10;99.90
58447;DHT22;44240;51.840;7.258;2023-01-19T09:09:49;3.10;99.90
58447;DHT22;44240;51.840;7.258;2023-01-19T09:12:14;3.10;99.90
58447;DHT22;44240;51.840;7.258;2023-01-19T09:14:40;3.20;99.90
58447;DHT22;44240;51.840;7.258;2023-01-19T09:17:05;3.20;99.90
58447;DHT22;44240;51.840;7.258;2023-01-19T09:19:31;3.20;99.90
58447;DHT22;44240;51.840;7.258;2023-01-19T09:21:56;3.30;99.90
58447;DHT22;44240;51.840;7.258;2023-01-19T09:24:24;3.30;99.90
58447;DHT22;44240;51.840;7.258;2023-01-19T09:26:50;3.30;99.90
58447;DHT22;44240;51.840;7.258;2023-01-19T09:29:15;3.30;99.90
58447;DHT22;44240;51.840;7.258;2023-01-19T09:31:41;3.30;99.90
58447;DHT22;44240;51.840;7.258;2023-01-19T09:34:08;3.30;99.90
58447;DHT22;44240;51.840;7.258;2023-01-19T09:36:33;3.30;99.90
58447;DHT22;44240;51.840;7.258;2023-01-19T09:39:00;3.40;99.90
58447;DHT22;44240;51.840;7.258;2023-01-19T09:41:28;3.40;99.90
58447;DHT22;44240;51.840;7.258;2023-01-19T09:43:56;3.50;99.90
58447;DHT22;44240;51.840;7.258;2023-01-19T09:46:29;3.50;99.90
58447;DHT22;44240;51.840;7.258;2023-01-19T09:49:02;3.50;99.90
58447;DHT22;44240;51.840;7.258;2023-01-19T09:51:36;3.50;99.90
58447;DHT22;44240;51.840;7.258;2023-01-19T09:54:17;3.60;99.90
58447;DHT22;44240;51.840;7.258;2023-01-19T09:56:45;3.60;99.90
58447;DHT22;44240;51.840;7.258;2023-01-19T09:59:21;3.60;99.90
58447;DHT22;44240;51.840;7.258;2023-01-19T10:10:16;3.70;99.90
58447;DHT22;44240;51.840;7.258;2023-01-19T10:15:41;3.70;99.90
58447;DHT22;44240;51.840;7.258;2023-01-19T10:18:24;3.70;99.90
58447;DHT22;44240;51.840;7.258;2023-01-19T10:26:10;3.70;99.90
58447;DHT22;44240;51.840;7.258;2023-01-19T10:28:38;3.80;99.90
58447;DHT22;44240;51.840;7.258;2023-01-19T10:31:05;3.70;99.90
58447;DHT22;44240;51.840;7.258;2023-01-19T10:33:32;3.70;99.90
58447;DHT22;44240;51.840;7.258;2023-01-19T10:36:03;3.70;99.90
58447;DHT22;44240;51.840;7.258;2023-01-19T10:38:28;3.70;99.90
58447;DHT22;44240;51.840;7.258;2023-01-19T10:41:01;3.70;99.90
58447;DHT22;44240;51.840;7.258;2023-01-19T10:43:45;3.70;99.90
58447;DHT22;44240;51.840;7.258;2023-01-19T10:46:20;3.70;99.90
58447;DHT22;44240;51.840;7.258;2023-01-19T10:48:48;3.70;99.90
58447;DHT22;44240;51.840;7.258;2023-01-19T10:51:15;3.80;99.90
58447;DHT22;44240;51.840;7.258;2023-01-19T10:53:56;3.80;99.90
58447;DHT22;44240;51.840;7.258;2023-01-19T10:56:26;3.80;99.90
58447;DHT22;44240;51.840;7.258;2023-01-19T10:58:51;3.90;99.90
58447;DHT22;44240;51.840;7.258;2023-01-19T11:01:24;3.80;99.90
58447;DHT22;44240;51.840;7.258;2023-01-19T11:03:51;3.90;99.90
58447;DHT22;44240;51.840;7.258;2023-01-19T11:06:21;3.90;99.90
58447;DHT22;44240;51.840;7.258;2023-01-19T11:08:48;3.90;99.90
58447;DHT22;44240;51.840;7.258;2023-01-19T11:11:18;3.90;99.90
58447;DHT22;44240;51.840;7.258;2023-01-19T11:13:46;3.90;99.90
58447;DHT22;44240;51.840;7.258;2023-01-19T11:16:28;3.90;99.90
58447;DHT22;44240;51.840;7.258;2023-01-19T11:18:56;4.00;99.90
58447;DHT22;44240;51.840;7.258;2023-01-19T11:21:25;4.10;99.90
58447;DHT22;44240;51.840;7.258;2023-01-19T11:23:53;4.10;99.90
58447;DHT22;44240;51.840;7.258;2023-01-19T11:26:28;4.20;99.90
58447;DHT22;44240;51.840;7.258;2023-01-19T11:28:56;4.20;99.90
58447;DHT22;44240;51.840;7.258;2023-01-19T11:33:56;4.20;99.90
58447;DHT22;44240;51.840;7.258;2023-01-19T11:36:26;4.20;99.90
58447;DHT22;44240;51.840;7.258;2023-01-19T11:39:21;4.20;99.90
58447;DHT22;44240;51.840;7.258;2023-01-19T11:41:48;4.30;99.90
58447;DHT22;44240;51.840;7.258;2023-01-19T11:44:23;4.20;99.90
58447;DHT22;44240;51.840;7.258;2023-01-19T11:46:54;4.20;99.90
58447;DHT22;44240;51.840;7.258;2023-01-19T11:49:28;4.20;99.90
58447;DHT22;44240;51.840;7.258;2023-01-19T11:57:44;4.30;99.90
58447;DHT22;44240;51.840;7.258;2023-01-19T12:00:35;4.30;99.90
58447;DHT22;44240;51.840;7.258;2023-01-19T12:03:57;4.30;99.90
58447;DHT22;44240;51.840;7.258;2023-01-19T12:06:03;4.30;99.90
58447;DHT22;44240;51.840;7.258;2023-01-19T12:08:36;4.40;99.90
58447;DHT22;44240;51.840;7.258;2023-01-19T12:11:04;4.40;99.90
58447;DHT22;44240;51.840;7.258;2023-01-19T12:13:34;4.40;99.90
58447;DHT22;44240;51.840;7.258;2023-01-19T12:16:06;4.40;99.90
58447;DHT22;44240;51.840;7.258;2023-01-19T12:18:39;4.40;99.90
58447;DHT22;44240;51.840;7.258;2023-01-19T12:21:06;4.50;99.90
58447;DHT22;44240;51.840;7.258;2023-01-19T12:23:50;4.40;99.90
58447;DHT22;44240;51.840;7.258;2023-01-19T12:26:27;4.40;99.90
58447;DHT22;44240;51.840;7.258;2023-01-19T12:29:06;4.40;99.90
58447;DHT22;44240;51.840;7.258;2023-01-19T12:31:35;4.40;99.90
58447;DHT22;44240;51.840;7.258;2023-01-19T12:34:35;4.50;99.90
58447;DHT22;44240;51.840;7.258;2023-01-19T12:37:05;4.40;99.90
58447;DHT22;44240;51.840;7.258;2023-01-19T12:39:31;4.40;99.90
58447;DHT22;44240;51.840;7.258;2023-01-19T12:42:13;4.40;99.90
58447;DHT22;44240;51.840;7.258;2023-01-19T12:44:40;4.50;99.90
58447;DHT22;44240;51.840;7.258;2023-01-19T12:49:43;4.50;99.90
58447;DHT22;44240;51.840;7.258;2023-01-19T12:57:23;4.60;99.90
58447;DHT22;44240;51.840;7.258;2023-01-19T13:00:04;4.60;99.90
58447;DHT22;44240;51.840;7.258;2023-01-19T13:02:43;4.60;99.90
58447;DHT22;44240;51.840;7.258;2023-01-19T13:05:14;4.60;99.90
58447;DHT22;44240;51.840;7.258;2023-01-19T13:10:52;4.60;99.90
58447;DHT22;44240;51.840;7.258;2023-01-19T13:15:44;4.70;99.90
58447;DHT22;44240;51.840;7.258;2023-01-19T13:18:16;4.70;99.90
58447;DHT22;44240;51.840;7.258;2023-01-19T13:21:01;4.70;99.90
58447;DHT22;44240;51.840;7.258;2023-01-19T13:23:51;4.80;99.90
58447;DHT22;44240;51.840;7.258;2023-01-19T13:26:18;4.80;99.90
58447;DHT22;44240;51.840;7.258;2023-01-19T13:28:47;4.80;99.90
58447;DHT22;44240;51.840;7.258;2023-01-19T13:31:14;4.80;99.90
58447;DHT22;44240;51.840;7.258;2023-01-19T13:36:29;4.80;99.90
58447;DHT22;44240;51.840;7.258;2023-01-19T13:38:57;4.80;99.90
58447;DHT22;44240;51.840;7.258;2023-01-19T13:41:28;4.80;99.90
58447;DHT22;44240;51.840;7.258;2023-01-19T13:44:01;4.90;99.90
58447;DHT22;44240;51.840;7.258;2023-01-19T13:46:27;4.90;99.90
58447;DHT22;44240;51.840;7.258;2023-01-19T13:48:57;4.80;99.90
58447;DHT22;44240;51.840;7.258;2023-01-19T13:51:24;4.90;99.90
58447;DHT22;44240;51.840;7.258;2023-01-19T13:53:57;4.90;99.90
58447;DHT22;44240;51.840;7.258;2023-01-19T13:56:30;4.90;99.90
58447;DHT22;44240;51.840;7.258;2023-01-19T14:01:22;5.00;99.90
58447;DHT22;44240;51.840;7.258;2023-01-19T14:03:47;5.10;99.90
58447;DHT22;44240;51.840;7.258;2023-01-19T14:06:45;5.10;99.90
58447;DHT22;44240;51.840;7.258;2023-01-19T14:09:16;5.20;99.90
58447;DHT22;44240;51.840;7.258;2023-01-19T14:12:03;5.10;99.90
58447;DHT22;44240;51.840;7.258;2023-01-19T14:14:29;5.10;99.90
58447;DHT22;44240;51.840;7.258;2023-01-19T14:16:54;5.10;99.90
58447;DHT22;44240;51.840;7.258;2023-01-19T14:19:20;5.10;99.90
58447;DHT22;44240;51.840;7.258;2023-01-19T14:21:57;5.00;99.90
58447;DHT22;44240;51.840;7.258;2023-01-19T14:24:22;5.00;99.90
58447;DHT22;44240;51.840;7.258;2023-01-19T14:26:52;5.10;99.90
58447;DHT22;44240;51.840;7.258;2023-01-19T14:34:35;5.00;99.90
58447;DHT22;44240;51.840;7.258;2023-01-19T14:39:43;5.00;99.90
58447;DHT22;44240;51.840;7.258;2023-01-19T14:42:37;5.00;99.90
58447;DHT22;44240;51.840;7.258;2023-01-19T14:45:06;5.00;99.90
58447;DHT22;44240;51.840;7.258;2023-01-19T14:47:40;5.00;99.90
58447;DHT22;44240;51.840;7.258;2023-01-19T14:52:54;5.00;99.90
58447;DHT22;44240;51.840;7.258;2023-01-19T14:55:45;5.00;99.90
58447;DHT22;44240;51.840;7.258;2023-01-19T14:58:10;5.00;99.90
58447;DHT22;44240;51.840;7.258;2023-01-19T15:00:36;5.00;99.90
58447;DHT22;44240;51.840;7.258;2023-01-19T15:03:02;5.10;99.90
58447;DHT22;44240;51.840;7.258;2023-01-19T15:05:30;5.10;99.90
58447;DHT22;44240;51.840;7.258;2023-01-19T15:07:56;5.10;99.90
58447;DHT22;44240;51.840;7.258;2023-01-19T15:10:23;5.00;99.90
58447;DHT22;44240;51.840;7.258;2023-01-19T15:12:50;5.10;99.90
58447;DHT22;44240;51.840;7.258;2023-01-19T15:15:31;5.10;99.90
58447;DHT22;44240;51.840;7.258;2023-01-19T15:18:02;5.10;99.90
58447;DHT22;44240;51.840;7.258;2023-01-19T15:20:28;5.10;99.90
58447;DHT22;44240;51.840;7.258;2023-01-19T15:22:54;5.10;99.90
58447;DHT22;44240;51.840;7.258;2023-01-19T15:25:21;5.10;99.90
58447;DHT22;44240;51.840;7.258;2023-01-19T15:27:50;5.00;99.90
58447;DHT22;44240;51.840;7.258;2023-01-19T15:30:21;5.00;99.90
58447;DHT22;44240;51.840;7.258;2023-01-19T15:32:48;4.90;99.90
58447;DHT22;44240;51.840;7.258;2023-01-19T15:35:20;4.90;99.90
58447;DHT22;44240;51.840;7.258;2023-01-19T15:37:47;4.80;99.90
58447;DHT22;44240;51.840;7.258;2023-01-19T15:40:14;4.80;99.90
58447;DHT22;44240;51.840;7.258;2023-01-19T15:42:40;4.80;99.90
58447;DHT22;44240;51.840;7.258;2023-01-19T15:45:41;4.70;99.90
58447;DHT22;44240;51.840;7.258;2023-01-19T15:48:09;4.70;99.90
58447;DHT22;44240;51.840;7.258;2023-01-19T15:50:37;4.60;99.90
58447;DHT22;44240;51.840;7.258;2023-01-19T15:53:04;4.50;99.90
58447;DHT22;44240;51.840;7.258;2023-01-19T15:55:29;4.50;99.90
58447;DHT22;44240;51.840;7.258;2023-01-19T15:57:55;4.50;99.90
58447;DHT22;44240;51.840;7.258;2023-01-19T16:00:27;4.50;99.90
58447;DHT22;44240;51.840;7.258;2023-01-19T16:02:52;4.50;99.90
58447;DHT22;44240;51.840;7.258;2023-01-19T16:05:18;4.40;99.90
58447;DHT22;44240;51.840;7.258;2023-01-19T16:07:43;4.40;99.90
58447;DHT22;44240;51.840;7.258;2023-01-19T16:10:09;4.40;99.90
58447;DHT22;44240;51.840;7.258;2023-01-19T16:12:36;4.40;99.90
58447;DHT22;44240;51.840;7.258;2023-01-19T16:15:02;4.30;99.90
58447;DHT22;44240;51.840;7.258;2023-01-19T16:17:27;4.20;99.90
58447;DHT22;44240;51.840;7.258;2023-01-19T16:19:53;4.30;99.90
58447;DHT22;44240;51.840;7.258;2023-01-19T16:22:18;4.20;99.90
58447;DHT22;44240;51.840;7.258;2023-01-19T16:24:44;4.20;99.90
58447;DHT22;44240;51.840;7.258;2023-01-19T16:27:09;4.20;99.90
58447;DHT22;44240;51.840;7.258;2023-01-19T16:29:35;4.10;99.90
58447;DHT22;44240;51.840;7.258;2023-01-19T16:32:00;4.10;99.90
58447;DHT22;44240;51.840;7.258;2023-01-19T16:34:26;4.10;99.90
58447;DHT22;44240;51.840;7.258;2023-01-19T16:36:51;4.00;99.90
58447;DHT22;44240;51.840;7.258;2023-01-19T16:39:17;4.00;99.90
58447;DHT22;44240;51.840;7.258;2023-01-19T16:41:43;4.00;99.90
58447;DHT22;44240;51.840;7.258;2023-01-19T16:44:10;4.00;99.90
58447;DHT22;44240;51.840;7.258;2023-01-19T16:46:39;4.00;99.90
58447;DHT22;44240;51.840;7.258;2023-01-19T16:49:12;4.00;99.90
58447;DHT22;44240;51.840;7.258;2023-01-19T16:51:39;4.00;99.90
58447;DHT22;44240;51.840;7.258;2023-01-19T16:54:05;4.00;99.90
58447;DHT22;44240;51.840;7.258;2023-01-19T16:56:30;4.00;99.90